Time;durP1;ratioP1;P1;durP2;ratioP2;P2;SDS_P1;SDS_P2;PMS_P1;PMS_P2;Temp;Humidity;BMP_temperature;BMP_pressure;BME280_temperature;BME280_humidity;BME280_pressure;Samples;Min_cycle;Max_cycle;Signal;HPM_P1;HPM_P2
2022/06/19 00:02:12;;;;;;;9.10;6.17;;;25.10;70.40;;;;;;5136530;27;20500;-67
2022/06/19 00:04:39;;;;;;;10.80;6.17;;;25.10;71.40;;;;;;5136786;27;20868;-67
2022/06/19 00:07:08;;;;;;;10.47;6.60;;;25.00;72.60;;;;;;5136914;27;20476;-67
2022/06/19 00:09:35;;;;;;;13.60;7.20;;;25.00;72.90;;;;;;5136872;27;20465;-67
2022/06/19 00:12:01;;;;;;;8.27;6.50;;;24.90;73.30;;;;;;5136455;27;20523;-66
2022/06/19 00:14:28;;;;;;;8.47;6.60;;;24.80;73.30;;;;;;5136427;27;20484;-66
2022/06/19 00:16:55;;;;;;;10.07;7.30;;;24.80;73.80;;;;;;5137023;27;20449;-67
2022/06/19 00:19:22;;;;;;;10.53;6.67;;;24.70;74.10;;;;;;5136658;27;20437;-67
2022/06/19 00:21:49;;;;;;;9.10;6.00;;;24.70;74.90;;;;;;5136455;27;20494;-67
2022/06/19 00:24:17;;;;;;;9.70;6.30;;;24.70;75.00;;;;;;5136444;27;20488;-67
2022/06/19 00:26:44;;;;;;;9.80;6.73;;;24.60;75.00;;;;;;5136424;27;20452;-67
2022/06/19 00:29:11;;;;;;;11.00;6.20;;;24.60;74.60;;;;;;5136448;27;20442;-66
2022/06/19 00:31:38;;;;;;;7.43;5.27;;;24.60;74.20;;;;;;5136027;27;20485;-66
2022/06/19 00:34:05;;;;;;;6.90;4.67;;;24.50;73.50;;;;;;5136114;27;20479;-66
2022/06/19 00:36:32;;;;;;;7.57;5.80;;;24.40;73.30;;;;;;5136300;27;20495;-67
2022/06/19 00:38:59;;;;;;;9.50;5.87;;;24.40;73.60;;;;;;5136193;27;20477;-67
2022/06/19 00:41:33;;;;;;;8.50;5.70;;;24.40;73.80;;;;;;5135918;27;20547;-67
2022/06/19 00:44:01;;;;;;;5.93;5.13;;;24.30;73.30;;;;;;5135851;27;20942;-66
2022/06/19 00:46:47;;;;;;;6.60;4.67;;;24.30;73.30;;;;;;5136140;27;20467;-67
2022/06/19 00:49:17;;;;;;;7.03;4.83;;;24.30;74.10;;;;;;5136085;27;20483;-67
2022/06/19 00:51:45;;;;;;;7.30;4.47;;;24.30;73.70;;;;;;5135629;27;20528;-67
2022/06/19 00:54:16;;;;;;;9.10;5.40;;;24.20;74.10;;;;;;5135531;27;20556;-66
2022/06/19 00:56:45;;;;;;;8.60;5.50;;;24.20;74.80;;;;;;5135955;27;20468;-67
2022/06/19 00:59:15;;;;;;;6.30;4.53;;;24.20;74.90;;;;;;5135527;27;20478;-67
2022/06/19 01:01:43;;;;;;;6.43;5.37;;;24.30;74.40;;;;;;5135789;27;20820;-66
2022/06/19 01:04:18;;;;;;;7.77;4.97;;;24.20;74.90;;;;;;5135292;27;20487;-66
2022/06/19 01:06:48;;;;;;;9.60;5.40;;;24.10;74.90;;;;;;5135771;27;20443;-67
2022/06/19 01:09:15;;;;;;;9.30;5.20;;;24.10;75.80;;;;;;5135695;27;20852;-67
2022/06/19 01:11:42;;;;;;;10.40;4.87;;;24.10;75.20;;;;;;5135355;27;20494;-67
2022/06/19 01:14:15;;;;;;;5.83;5.00;;;24.10;74.30;;;;;;5135218;27;20446;-66
2022/06/19 01:16:42;;;;;;;8.47;5.77;;;24.10;74.20;;;;;;5135515;27;20538;-67
2022/06/19 01:19:11;;;;;;;8.23;5.33;;;24.00;75.10;;;;;;5135255;27;20475;-67
2022/06/19 01:21:45;;;;;;;10.27;6.53;;;23.90;75.50;;;;;;5135138;27;20464;-66
2022/06/19 01:24:21;;;;;;;7.53;5.00;;;23.90;75.90;;;;;;5135373;27;20818;-67
2022/06/19 01:26:53;;;;;;;10.77;5.90;;;23.70;75.90;;;;;;5135716;27;20852;-67
2022/06/19 01:29:20;;;;;;;6.23;5.20;;;23.70;77.10;;;;;;5135483;27;20475;-66
2022/06/19 01:31:50;;;;;;;6.07;4.93;;;23.80;76.60;;;;;;5135121;27;21001;-67
2022/06/19 01:34:32;;;;;;;7.87;5.60;;;23.80;77.30;;;;;;5134925;27;20786;-66
2022/06/19 01:37:02;;;;;;;7.70;5.97;;;23.90;76.90;;;;;;5135233;27;20448;-67
2022/06/19 01:39:32;;;;;;;10.27;5.60;;;23.90;77.10;;;;;;5135080;27;20472;-67
2022/06/19 01:42:01;;;;;;;9.30;5.50;;;23.90;76.90;;;;;;5135103;27;20517;-67
2022/06/19 01:44:28;;;;;;;9.37;5.47;;;23.80;77.50;;;;;;5134616;27;20444;-67
2022/06/19 01:46:55;;;;;;;9.03;5.80;;;23.80;77.50;;;;;;5135331;27;20477;-67
2022/06/19 01:49:23;;;;;;;10.40;6.67;;;23.80;78.30;;;;;;5134859;27;20481;-67
2022/06/19 01:51:52;;;;;;;8.23;6.17;;;23.70;78.40;;;;;;5134622;27;20497;-67
2022/06/19 01:54:24;;;;;;;10.20;6.13;;;23.70;79.10;;;;;;5134413;27;20455;-67
2022/06/19 01:56:54;;;;;;;7.13;5.40;;;23.70;79.40;;;;;;5134901;27;20467;-66
2022/06/19 01:59:24;;;;;;;10.30;5.70;;;23.60;79.20;;;;;;5134645;27;20473;-67
2022/06/19 02:01:54;;;;;;;8.93;4.70;;;23.50;78.60;;;;;;5134569;27;20501;-67
2022/06/19 02:04:24;;;;;;;9.37;5.10;;;23.50;77.70;;;;;;5134490;27;20537;-67
2022/06/19 02:06:56;;;;;;;8.77;5.73;;;23.40;77.80;;;;;;5134736;27;20441;-66
2022/06/19 02:09:23;;;;;;;6.07;5.10;;;23.40;78.30;;;;;;5134195;27;20446;-67
2022/06/19 02:11:51;;;;;;;10.20;5.73;;;23.40;78.50;;;;;;5134615;27;20461;-67
2022/06/19 02:14:20;;;;;;;9.43;6.20;;;23.40;78.40;;;;;;5134474;27;20481;-67
2022/06/19 02:16:49;;;;;;;10.60;6.87;;;23.40;79.30;;;;;;5134617;27;20447;-66
2022/06/19 02:19:17;;;;;;;7.47;5.60;;;23.40;79.80;;;;;;5134590;27;20890;-66
2022/06/19 02:21:47;;;;;;;9.13;6.13;;;23.40;79.90;;;;;;5134284;27;20497;-66
2022/06/19 02:24:16;;;;;;;7.23;5.13;;;23.30;79.80;;;;;;5134202;27;20448;-67
2022/06/19 02:26:45;;;;;;;9.53;4.80;;;23.20;79.20;;;;;;5134546;27;20856;-66
2022/06/19 02:29:16;;;;;;;9.20;4.90;;;23.20;79.10;;;;;;5134212;27;20470;-66
2022/06/19 02:31:46;;;;;;;10.53;5.50;;;23.10;79.00;;;;;;5134341;27;20893;-66
2022/06/19 02:34:18;;;;;;;7.13;5.10;;;23.10;78.80;;;;;;5134024;27;20474;-66
2022/06/19 02:36:47;;;;;;;7.43;5.00;;;23.10;79.20;;;;;;5134494;27;20438;-67
2022/06/19 02:39:22;;;;;;;6.80;5.07;;;23.00;79.40;;;;;;5134415;27;20466;-67
2022/06/19 02:41:57;;;;;;;10.50;4.80;;;23.00;78.80;;;;;;5134221;27;20549;-67
2022/06/19 02:44:32;;;;;;;7.67;4.63;;;23.00;79.80;;;;;;5134283;27;20465;-67
2022/06/19 02:46:59;;;;;;;10.03;4.70;;;22.90;80.80;;;;;;5134389;27;20480;-67
2022/06/19 02:49:27;;;;;;;6.77;5.40;;;22.80;80.30;;;;;;5134347;27;20858;-67
2022/06/19 02:51:54;;;;;;;7.60;5.60;;;22.80;80.80;;;;;;5134256;27;20521;-66
2022/06/19 02:54:21;;;;;;;6.47;5.17;;;22.80;80.70;;;;;;5133946;27;20917;-67
2022/06/19 02:56:47;;;;;;;7.20;5.00;;;22.80;81.70;;;;;;5134431;27;20445;-67
2022/06/19 02:59:14;;;;;;;8.97;5.70;;;22.80;80.40;;;;;;5134400;27;20478;-67
2022/06/19 03:01:41;;;;;;;8.20;4.83;;;22.80;80.70;;;;;;5134328;27;20465;-66
2022/06/19 03:04:17;;;;;;;5.73;5.13;;;22.70;82.30;;;;;;5133993;27;20904;-67
2022/06/19 03:06:45;;;;;;;6.03;4.50;;;22.60;82.50;;;;;;5134060;27;20465;-67
2022/06/19 03:09:12;;;;;;;6.50;5.50;;;22.60;83.40;;;;;;5134143;27;20473;-66
2022/06/19 03:11:39;;;;;;;11.67;5.87;;;22.60;83.20;;;;;;5133798;27;20549;-67
2022/06/19 03:14:06;;;;;;;5.60;5.10;;;22.70;83.60;;;;;;5133802;27;20589;-67
2022/06/19 03:16:33;;;;;;;8.53;5.17;;;22.70;83.90;;;;;;5133912;27;20987;-67
2022/06/19 03:19:00;;;;;;;8.90;5.23;;;22.70;83.20;;;;;;5134084;27;20473;-66
2022/06/19 03:21:27;;;;;;;9.30;5.83;;;22.70;83.30;;;;;;5136225;27;20498;-67
2022/06/19 03:23:55;;;;;;;6.93;5.00;;;22.60;84.70;;;;;;5137682;27;20484;-66
2022/06/19 03:26:22;;;;;;;13.50;5.73;;;22.40;83.60;;;;;;5137834;27;20489;-67
2022/06/19 03:28:49;;;;;;;9.93;5.37;;;22.40;85.20;;;;;;5137699;27;20474;-66
2022/06/19 03:31:19;;;;;;;6.67;5.30;;;22.40;83.60;;;;;;5137359;27;20472;-67
2022/06/19 03:33:46;;;;;;;10.90;4.80;;;22.40;84.00;;;;;;5137462;27;20498;-67
2022/06/19 03:36:13;;;;;;;8.93;4.40;;;22.60;83.00;;;;;;5137564;27;20473;-67
2022/06/19 03:38:40;;;;;;;8.27;5.10;;;22.60;83.30;;;;;;5137351;27;20916;-66
2022/06/19 03:41:08;;;;;;;8.03;4.57;;;22.60;83.20;;;;;;5137195;27;20498;-67
2022/06/19 03:43:35;;;;;;;8.20;5.30;;;22.70;82.80;;;;;;5137257;27;20533;-66
2022/06/19 03:46:03;;;;;;;5.53;4.40;;;22.70;82.40;;;;;;5137302;27;20441;-67
2022/06/19 03:48:30;;;;;;;7.87;5.30;;;22.70;84.70;;;;;;5137284;27;20811;-67
2022/06/19 03:50:57;;;;;;;8.13;5.10;;;22.60;83.40;;;;;;5136900;27;20498;-67
2022/06/19 03:53:23;;;;;;;8.00;5.23;;;22.60;85.20;;;;;;5136641;27;21010;-67
2022/06/19 03:55:51;;;;;;;5.93;4.40;;;22.60;84.40;;;;;;5137180;27;20445;-67
2022/06/19 03:58:19;;;;;;;9.00;4.87;;;22.60;83.80;;;;;;5137122;27;20470;-67
2022/06/19 04:00:46;;;;;;;6.33;5.10;;;22.60;85.10;;;;;;5136972;27;20473;-67
2022/06/19 04:03:13;;;;;;;9.00;4.47;;;22.60;85.70;;;;;;5136562;27;20476;-67
2022/06/19 04:05:40;;;;;;;14.10;5.90;;;22.70;83.80;;;;;;5137009;27;20517;-67
2022/06/19 04:08:07;;;;;;;12.13;5.50;;;22.70;84.50;;;;;;5136947;27;20476;-67
2022/06/19 04:10:34;;;;;;;10.20;5.87;;;22.70;85.10;;;;;;5136788;27;20438;-67
2022/06/19 04:13:02;;;;;;;8.27;4.93;;;22.80;84.10;;;;;;5136704;27;20474;-67
2022/06/19 04:15:30;;;;;;;8.30;4.87;;;22.80;84.70;;;;;;5137226;27;20474;-67
2022/06/19 04:17:57;;;;;;;9.17;5.10;;;22.80;85.70;;;;;;5136715;27;20805;-67
2022/06/19 04:20:24;;;;;;;7.77;4.73;;;22.90;86.50;;;;;;5136490;27;20438;-67
2022/06/19 04:22:51;;;;;;;9.50;5.70;;;22.90;86.20;;;;;;5136176;27;20541;-67
2022/06/19 04:25:18;;;;;;;8.87;4.87;;;22.90;86.30;;;;;;5136631;27;20450;-67
2022/06/19 04:27:45;;;;;;;9.83;5.57;;;23.00;85.90;;;;;;5136590;27;20525;-68
2022/06/19 04:30:13;;;;;;;8.17;5.20;;;23.10;85.40;;;;;;5136453;27;20529;-67
2022/06/19 04:32:41;;;;;;;10.10;6.20;;;23.10;85.50;;;;;;5135308;27;20537;-67
2022/06/19 04:35:09;;;;;;;8.67;7.03;;;23.20;87.10;;;;;;5136400;27;20470;-67
2022/06/19 04:37:36;;;;;;;9.40;5.20;;;23.20;87.20;;;;;;5136389;27;20482;-67
2022/06/19 04:40:04;;;;;;;10.20;5.90;;;23.20;86.60;;;;;;5136258;27;20474;-67
2022/06/19 04:42:31;;;;;;;7.97;5.17;;;23.30;85.80;;;;;;5135728;27;20466;-67
2022/06/19 04:44:58;;;;;;;7.20;5.53;;;23.30;86.40;;;;;;5136117;27;20470;-68
2022/06/19 04:47:25;;;;;;;8.23;5.87;;;23.20;87.00;;;;;;5136198;27;20848;-67
2022/06/19 04:49:53;;;;;;;8.20;5.87;;;23.30;86.10;;;;;;5136150;27;20467;-67
2022/06/19 04:52:20;;;;;;;10.90;6.07;;;23.30;86.70;;;;;;5135798;27;20465;-67
2022/06/19 04:54:47;;;;;;;12.90;5.83;;;23.40;87.80;;;;;;5135926;27;21130;-67
2022/06/19 04:57:14;;;;;;;8.17;6.63;;;23.40;87.80;;;;;;5135859;27;20922;-67
2022/06/19 04:59:41;;;;;;;8.80;6.00;;;23.50;88.60;;;;;;5135937;27;20537;-67
2022/06/19 05:02:08;;;;;;;7.13;6.30;;;23.50;86.70;;;;;;5135751;27;20498;-67
2022/06/19 05:04:35;;;;;;;7.93;5.47;;;23.50;87.80;;;;;;5135825;27;20862;-67
2022/06/19 05:07:03;;;;;;;7.50;5.70;;;23.40;88.00;;;;;;5135710;27;20477;-67
2022/06/19 05:09:30;;;;;;;8.10;5.77;;;23.50;87.50;;;;;;5135757;27;20528;-67
2022/06/19 05:11:57;;;;;;;8.60;5.80;;;23.50;89.30;;;;;;5135612;27;20505;-67
2022/06/19 05:14:23;;;;;;;6.80;5.50;;;23.60;90.30;;;;;;5135395;27;20517;-67
2022/06/19 05:16:51;;;;;;;11.00;6.00;;;23.70;90.60;;;;;;5135555;27;20471;-67
2022/06/19 05:19:17;;;;;;;7.63;5.50;;;23.60;89.80;;;;;;5135400;27;20940;-67
2022/06/19 05:21:44;;;;;;;7.97;6.03;;;23.70;88.30;;;;;;5135103;27;20490;-67
2022/06/19 05:24:13;;;;;;;11.40;6.30;;;23.60;87.70;;;;;;5135317;27;20437;-67
2022/06/19 05:26:40;;;;;;;11.37;5.27;;;23.60;87.50;;;;;;5135319;27;21019;-67
2022/06/19 05:29:07;;;;;;;9.43;5.33;;;23.60;88.20;;;;;;5135121;27;20477;-67
2022/06/19 05:31:34;;;;;;;8.13;5.57;;;23.60;87.10;;;;;;5135310;27;20525;-67
2022/06/19 05:34:01;;;;;;;11.37;5.20;;;23.70;87.10;;;;;;5135048;27;20484;-67
2022/06/19 05:36:29;;;;;;;7.20;5.20;;;23.80;86.10;;;;;;5135244;27;20476;-67
2022/06/19 05:38:56;;;;;;;11.43;5.23;;;23.80;85.70;;;;;;5135174;27;20440;-67
2022/06/19 05:41:26;;;;;;;10.63;5.20;;;23.90;85.20;;;;;;5135080;27;20502;-67
2022/06/19 05:43:53;;;;;;;13.07;5.77;;;23.90;85.00;;;;;;5134293;27;20448;-67
2022/06/19 05:46:21;;;;;;;8.00;5.40;;;24.10;84.70;;;;;;5135032;27;20855;-67
2022/06/19 05:48:48;;;;;;;10.00;5.43;;;24.20;84.20;;;;;;5135068;27;20465;-67
2022/06/19 05:51:19;;;;;;;10.27;5.57;;;24.20;84.90;;;;;;5134903;27;20460;-67
2022/06/19 05:53:49;;;;;;;12.13;4.77;;;24.30;85.60;;;;;;5134515;27;20933;-67
2022/06/19 05:56:16;;;;;;;7.73;5.50;;;24.40;87.00;;;;;;5134926;27;20523;-67
2022/06/19 05:58:45;;;;;;;10.67;6.20;;;24.40;86.20;;;;;;5134889;27;20473;-68
2022/06/19 06:01:13;;;;;;;11.17;5.10;;;24.50;84.50;;;;;;5134703;27;20469;-67
2022/06/19 06:03:41;;;;;;;7.10;5.17;;;24.60;84.10;;;;;;5134758;27;20447;-67
2022/06/19 06:06:13;;;;;;;7.83;5.40;;;24.60;83.90;;;;;;5134687;27;20449;-67
2022/06/19 06:08:40;;;;;;;14.10;5.67;;;24.60;84.30;;;;;;5135203;27;20451;-68
2022/06/19 06:11:08;;;;;;;9.63;6.10;;;24.60;82.90;;;;;;5134574;27;20468;-67
2022/06/19 06:13:35;;;;;;;9.70;5.43;;;24.70;82.90;;;;;;5134475;27;20532;-67
2022/06/19 06:16:04;;;;;;;11.23;5.47;;;24.80;83.30;;;;;;5134544;27;20473;-68
2022/06/19 06:18:31;;;;;;;6.43;5.20;;;24.80;83.50;;;;;;5134692;27;20488;-68
2022/06/19 06:21:00;;;;;;;10.97;5.33;;;24.90;83.70;;;;;;5134470;27;20476;-68
2022/06/19 06:23:29;;;;;;;8.10;5.50;;;25.00;84.30;;;;;;5134418;27;20480;-68
2022/06/19 06:26:00;;;;;;;10.10;5.90;;;25.00;84.00;;;;;;5134548;27;20440;-68
2022/06/19 06:28:28;;;;;;;7.70;5.10;;;25.10;84.60;;;;;;5134420;27;20437;-68
2022/06/19 06:30:55;;;;;;;11.40;5.93;;;25.20;84.30;;;;;;5134331;27;20489;-68
2022/06/19 06:33:24;;;;;;;9.43;5.33;;;25.20;84.30;;;;;;5134244;27;20470;-67
2022/06/19 06:35:51;;;;;;;10.00;5.40;;;25.40;84.70;;;;;;5134231;27;20502;-68
2022/06/19 06:38:17;;;;;;;7.80;5.03;;;25.40;83.30;;;;;;5134443;27;20525;-68
2022/06/19 06:40:44;;;;;;;12.10;5.63;;;25.60;82.80;;;;;;5134598;27;20474;-68
2022/06/19 06:43:11;;;;;;;8.87;5.33;;;25.70;83.00;;;;;;5133999;27;20481;-68
2022/06/19 06:45:38;;;;;;;7.40;5.13;;;25.90;82.60;;;;;;5134358;27;20517;-68
2022/06/19 06:48:06;;;;;;;11.13;5.60;;;26.10;82.30;;;;;;5134137;27;20473;-68
2022/06/19 06:50:34;;;;;;;9.10;5.40;;;26.20;83.00;;;;;;5134262;27;20438;-68
2022/06/19 06:53:01;;;;;;;9.20;5.13;;;26.40;82.00;;;;;;5134050;27;20879;-68
2022/06/19 06:55:28;;;;;;;9.70;5.60;;;26.50;82.60;;;;;;5134926;27;20513;-68
2022/06/19 06:57:55;;;;;;;9.87;6.53;;;26.70;81.50;;;;;;5138345;27;20489;-68
2022/06/19 07:00:23;;;;;;;9.80;5.87;;;27.00;80.70;;;;;;5138208;27;20442;-68
2022/06/19 07:02:51;;;;;;;7.93;5.60;;;27.40;79.80;;;;;;5137997;27;20450;-68
2022/06/19 07:05:18;;;;;;;10.60;5.50;;;27.60;77.50;;;;;;5138140;27;20477;-68
2022/06/19 07:07:47;;;;;;;8.77;6.17;;;27.60;79.20;;;;;;5137975;27;20963;-68
2022/06/19 07:10:14;;;;;;;10.47;6.53;;;27.60;80.00;;;;;;5138000;27;20445;-68
2022/06/19 07:12:41;;;;;;;10.90;6.13;;;27.60;80.30;;;;;;5137510;27;20509;-68
2022/06/19 07:15:11;;;;;;;15.00;6.40;;;27.50;81.60;;;;;;5137670;27;20991;-68
2022/06/19 07:17:38;;;;;;;7.47;5.60;;;27.50;81.70;;;;;;5138294;27;20481;-68
2022/06/19 07:20:07;;;;;;;7.70;5.83;;;27.40;81.60;;;;;;5137864;27;20484;-68
2022/06/19 07:22:35;;;;;;;7.67;5.80;;;27.50;83.90;;;;;;5137644;27;20890;-68
2022/06/19 07:25:05;;;;;;;7.53;5.90;;;27.40;85.30;;;;;;5137776;27;20473;-68
2022/06/19 07:27:31;;;;;;;9.77;6.50;;;27.40;85.10;;;;;;5137707;27;20470;-68
2022/06/19 07:29:58;;;;;;;9.60;6.50;;;27.20;83.00;;;;;;5137723;27;20477;-68
2022/06/19 07:32:25;;;;;;;11.60;5.87;;;27.20;85.70;;;;;;5137153;27;20466;-68
2022/06/19 07:34:52;;;;;;;10.80;6.00;;;27.10;83.50;;;;;;5137353;27;20564;-68
2022/06/19 07:37:19;;;;;;;10.00;6.57;;;27.00;84.60;;;;;;5137475;27;20440;-68
2022/06/19 07:39:46;;;;;;;10.70;6.93;;;27.00;86.90;;;;;;5137490;27;20534;-68
2022/06/19 07:42:14;;;;;;;11.57;7.00;;;27.10;84.90;;;;;;5136992;27;20501;-68
2022/06/19 07:44:41;;;;;;;15.00;6.43;;;27.10;84.70;;;;;;5137362;27;20470;-68
2022/06/19 07:50:13;;;;;;;9.63;7.30;;;27.40;86.60;;;;;;5137386;27;20426;-66
2022/06/19 07:52:42;;;;;;;12.40;7.03;;;27.90;85.70;;;;;;5136892;27;20506;-66
2022/06/19 07:55:11;;;;;;;9.03;6.30;;;28.70;82.80;;;;;;5137171;27;20478;-67
2022/06/19 07:57:40;;;;;;;8.90;6.90;;;29.30;81.40;;;;;;5136968;27;20478;-67
2022/06/19 08:00:09;;;;;;;10.20;5.73;;;29.70;77.00;;;;;;5137080;27;20481;-67
2022/06/19 08:02:36;;;;;;;9.03;7.43;;;30.10;76.20;;;;;;5136948;27;20875;-67
2022/06/19 08:05:05;;;;;;;7.60;6.20;;;30.80;72.40;;;;;;5136879;27;20439;-67
2022/06/19 08:07:32;;;;;;;9.87;6.80;;;31.50;71.90;;;;;;5135901;27;20445;-68
2022/06/19 08:09:59;;;;;;;10.27;6.70;;;31.40;70.80;;;;;;5136664;27;20475;-67
2022/06/19 08:12:25;;;;;;;10.70;7.50;;;31.40;72.80;;;;;;5136295;27;20549;-67
2022/06/19 08:14:54;;;;;;;8.97;8.03;;;31.20;71.00;;;;;;5136669;27;20502;-67
2022/06/19 08:17:20;;;;;;;11.10;9.80;;;31.10;72.30;;;;;;5136728;27;20615;-67
2022/06/19 08:19:47;;;;;;;12.80;11.03;;;31.10;72.50;;;;;;5136751;27;20469;-67
2022/06/19 08:22:14;;;;;;;13.80;12.43;;;31.20;73.30;;;;;;5136551;27;20880;-67
2022/06/19 08:24:41;;;;;;;13.03;10.93;;;31.30;73.40;;;;;;5136651;27;20808;-67
2022/06/19 08:27:08;;;;;;;11.33;10.07;;;31.60;73.20;;;;;;5136489;27;20529;-68
2022/06/19 08:29:35;;;;;;;10.30;9.30;;;32.00;71.00;;;;;;5136575;27;20473;-67
2022/06/19 08:32:05;;;;;;;11.47;10.33;;;32.40;68.60;;;;;;5136472;27;20463;-67
2022/06/19 08:34:32;;;;;;;13.80;10.20;;;33.00;63.30;;;;;;5136417;27;20490;-67
2022/06/19 08:37:00;;;;;;;11.00;9.90;;;33.50;64.50;;;;;;5136785;27;20464;-67
2022/06/19 08:39:29;;;;;;;11.33;10.10;;;33.80;63.10;;;;;;5136363;27;20492;-67
2022/06/19 08:42:14;;;;;;;10.90;9.87;;;34.20;59.50;;;;;;5136120;27;21027;-67
2022/06/19 08:45:21;;;;;;;9.40;8.40;;;35.00;59.40;;;;;;5136253;27;20908;-67
2022/06/19 08:48:11;;;;;;;9.80;8.90;;;35.20;57.90;;;;;;5136090;27;20442;-67
2022/06/19 08:50:46;;;;;;;9.33;8.23;;;35.00;56.10;;;;;;5135968;27;20477;-68
2022/06/19 08:53:32;;;;;;;14.07;7.93;;;35.20;57.00;;;;;;5135787;27;20452;-67
2022/06/19 08:56:06;;;;;;;9.20;8.30;;;36.20;56.60;;;;;;5135964;27;20505;-67
2022/06/19 08:58:39;;;;;;;12.87;11.77;;;36.80;53.30;;;;;;5136046;27;20442;-67
2022/06/19 09:01:15;;;;;;;12.10;10.93;;;37.60;46.40;;;;;;5135816;27;20497;-68
2022/06/19 09:06:44;;;;;;;11.83;10.93;;;37.80;45.80;;;;;;5135878;27;20414;-67
2022/06/19 09:09:30;;;;;;;11.80;10.80;;;38.90;41.10;;;;;;5135801;27;20438;-67
2022/06/19 09:12:07;;;;;;;12.10;10.87;;;40.20;38.90;;;;;;5135746;27;20472;-68
2022/06/19 09:14:38;;;;;;;11.97;10.90;;;41.40;34.70;;;;;;5135618;27;20557;-67
2022/06/19 09:17:11;;;;;;;12.00;11.00;;;42.00;33.40;;;;;;5135454;27;20474;-68
2022/06/19 09:19:49;;;;;;;12.53;11.50;;;42.70;32.30;;;;;;5135427;27;20442;-68
2022/06/19 09:22:55;;;;;;;15.40;11.53;;;42.70;31.30;;;;;;5135350;27;20466;-68
2022/06/19 09:25:39;;;;;;;11.50;10.50;;;43.00;29.90;;;;;;5117657;27;20457;-68
2022/06/19 09:28:12;;;;;;;12.23;10.60;;;43.20;29.90;;;;;;5135438;27;20466;-68
2022/06/19 09:30:46;;;;;;;12.17;10.97;;;43.30;29.20;;;;;;5135068;27;20441;-68
2022/06/19 09:33:19;;;;;;;11.03;9.70;;;43.80;29.30;;;;;;5135279;27;20444;-68
2022/06/19 09:35:52;;;;;;;12.87;11.37;;;44.10;28.60;;;;;;5135587;27;20531;-68
2022/06/19 09:38:24;;;;;;;13.53;9.90;;;44.40;28.60;;;;;;5135184;27;20434;-68
2022/06/19 09:40:56;;;;;;;9.47;8.67;;;44.30;27.70;;;;;;5135097;27;20497;-68
2022/06/19 09:43:29;;;;;;;11.50;9.53;;;44.40;27.20;;;;;;5135183;27;20474;-67
2022/06/19 09:46:00;;;;;;;11.03;10.10;;;44.20;27.00;;;;;;5135088;27;20494;-67
2022/06/19 09:48:32;;;;;;;15.27;13.87;;;44.10;27.00;;;;;;5135096;27;20855;-68
2022/06/19 09:51:05;;;;;;;11.70;10.67;;;44.10;27.60;;;;;;5134887;27;20466;-68
2022/06/19 09:53:41;;;;;;;10.97;8.80;;;44.40;27.60;;;;;;5134650;27;20493;-67
2022/06/19 09:56:14;;;;;;;8.97;8.27;;;44.50;26.80;;;;;;5134985;27;20784;-67
2022/06/19 09:58:46;;;;;;;8.03;7.40;;;44.00;26.00;;;;;;5134921;27;20470;-67
2022/06/19 10:01:14;;;;;;;9.53;8.63;;;44.00;26.40;;;;;;5134743;27;20820;-67
2022/06/19 10:03:45;;;;;;;9.70;8.90;;;44.00;25.80;;;;;;5134630;27;20442;-67
2022/06/19 10:06:18;;;;;;;9.73;8.87;;;43.50;26.50;;;;;;5134790;27;20559;-67
2022/06/19 10:08:50;;;;;;;9.63;8.80;;;43.60;26.70;;;;;;5135093;27;20515;-67
2022/06/19 10:11:22;;;;;;;9.10;8.00;;;43.40;26.60;;;;;;5134569;27;20485;-68
2022/06/19 10:13:54;;;;;;;9.80;8.30;;;43.50;26.50;;;;;;5134318;27;20438;-67
2022/06/19 10:16:28;;;;;;;10.40;9.40;;;43.20;26.10;;;;;;5134670;27;20864;-67
2022/06/19 10:18:58;;;;;;;9.27;8.37;;;43.20;26.70;;;;;;5134663;27;20466;-67
2022/06/19 10:24:33;;;;;;;10.70;9.63;;;42.90;27.50;;;;;;5113158;27;20510;-67
2022/06/19 10:27:07;;;;;;;10.77;9.87;;;42.70;27.60;;;;;;5134640;27;20555;-68
2022/06/19 10:29:49;;;;;;;10.67;9.70;;;41.90;28.20;;;;;;5134642;27;20438;-68
2022/06/19 10:33:01;;;;;;;9.87;8.97;;;41.40;28.90;;;;;;5138476;27;20864;-68
2022/06/19 10:35:35;;;;;;;10.87;9.20;;;40.90;29.10;;;;;;5139191;27;20470;-68
2022/06/19 10:38:16;;;;;;;10.53;9.43;;;40.50;29.50;;;;;;5138615;27;21004;-67
2022/06/19 10:40:49;;;;;;;15.63;14.10;;;39.90;30.00;;;;;;5138661;27;20473;-67
2022/06/19 10:43:29;;;;;;;10.67;8.97;;;39.50;30.70;;;;;;5138194;27;20483;-67
2022/06/19 10:45:58;;;;;;;9.47;8.57;;;39.00;30.10;;;;;;5138303;27;20478;-67
2022/06/19 10:48:28;;;;;;;10.27;9.23;;;38.40;30.50;;;;;;5138404;27;20473;-67
2022/06/19 10:51:15;;;;;;;11.03;9.80;;;38.10;31.40;;;;;;5138353;27;20462;-67
2022/06/19 10:54:03;;;;;;;12.17;9.60;;;37.80;32.00;;;;;;5137989;27;20457;-68
2022/06/19 10:56:37;;;;;;;10.03;9.10;;;37.50;32.40;;;;;;5138336;27;20454;-67
2022/06/19 10:59:05;;;;;;;10.60;9.00;;;37.40;32.70;;;;;;5138198;27;20525;-67
2022/06/19 11:04:24;;;;;;;10.20;9.30;;;37.30;32.60;;;;;;5137900;27;20429;-67
2022/06/19 11:06:55;;;;;;;11.77;9.10;;;37.10;33.20;;;;;;5138150;27;20477;-67
2022/06/19 11:09:29;;;;;;;10.37;9.20;;;37.10;33.60;;;;;;5138180;27;20856;-67
2022/06/19 11:12:14;;;;;;;11.30;9.00;;;37.10;32.70;;;;;;5137805;27;20975;-67
2022/06/19 11:14:48;;;;;;;9.77;8.77;;;37.00;32.90;;;;;;5137784;27;20469;-67
2022/06/19 11:17:17;;;;;;;8.63;7.93;;;37.10;32.70;;;;;;5138072;27;20441;-67
2022/06/19 11:19:46;;;;;;;10.20;9.37;;;37.10;32.60;;;;;;5137935;27;20862;-67
2022/06/19 11:22:31;;;;;;;8.90;8.00;;;37.10;32.60;;;;;;5137698;27;20632;-68
2022/06/19 11:25:24;;;;;;;12.87;8.73;;;37.00;33.00;;;;;;5137692;27;20470;-67
2022/06/19 11:27:52;;;;;;;11.57;8.73;;;37.00;32.10;;;;;;5137564;27;20533;-67
2022/06/19 11:30:28;;;;;;;8.90;8.10;;;37.00;32.50;;;;;;5137600;27;20470;-67
2022/06/19 11:32:55;;;;;;;10.67;9.57;;;37.00;32.40;;;;;;5137244;27;20975;-67
2022/06/19 11:35:23;;;;;;;9.83;8.57;;;37.00;32.70;;;;;;5137300;27;20812;-67
2022/06/19 11:37:54;;;;;;;10.13;9.23;;;37.10;32.70;;;;;;5137506;27;20434;-67
2022/06/19 11:40:32;;;;;;;9.83;8.80;;;37.10;32.60;;;;;;5137602;27;20442;-67
2022/06/19 11:43:00;;;;;;;9.40;8.60;;;37.10;32.80;;;;;;5135978;27;20462;-67
2022/06/19 11:45:31;;;;;;;9.97;9.07;;;37.10;33.00;;;;;;5137292;27;20510;-68
2022/06/19 11:48:05;;;;;;;10.60;8.60;;;37.10;32.30;;;;;;5137348;27;20853;-67
2022/06/19 11:50:50;;;;;;;10.03;8.90;;;37.10;32.80;;;;;;5137305;27;20439;-68
2022/06/19 11:53:22;;;;;;;11.97;8.40;;;37.10;33.40;;;;;;5136755;27;20485;-67
2022/06/19 11:55:52;;;;;;;9.50;8.67;;;37.00;32.10;;;;;;5137233;27;20845;-67
2022/06/19 11:58:28;;;;;;;11.07;9.30;;;36.90;32.50;;;;;;5137062;27;20474;-67
2022/06/19 12:01:02;;;;;;;11.10;8.60;;;36.90;32.10;;;;;;5137049;27;20892;-67
2022/06/19 12:03:31;;;;;;;13.10;8.70;;;36.80;32.70;;;;;;5136966;27;20481;-67
2022/06/19 12:06:00;;;;;;;10.73;8.83;;;36.80;33.40;;;;;;5136964;27;20508;-67
2022/06/19 12:08:30;;;;;;;9.77;8.87;;;36.70;33.10;;;;;;5136947;27;20474;-67
2022/06/19 12:11:00;;;;;;;9.03;8.13;;;36.80;32.90;;;;;;5137148;27;20494;-67
2022/06/19 12:13:31;;;;;;;9.70;8.80;;;36.90;33.10;;;;;;5136497;27;20481;-67
2022/06/19 12:16:02;;;;;;;10.13;8.20;;;36.90;32.50;;;;;;5136864;27;20438;-67
2022/06/19 12:18:31;;;;;;;9.10;8.20;;;36.90;33.70;;;;;;5136858;27;20449;-67
2022/06/19 12:21:01;;;;;;;9.90;8.90;;;36.90;32.80;;;;;;5136634;27;20474;-67
2022/06/19 12:23:34;;;;;;;11.33;8.37;;;36.80;32.40;;;;;;5136329;27;20520;-67
2022/06/19 12:26:09;;;;;;;9.43;8.57;;;36.80;32.80;;;;;;5136610;27;20517;-67
2022/06/19 12:28:42;;;;;;;10.40;8.47;;;36.80;32.70;;;;;;5136601;27;20469;-67
2022/06/19 12:31:12;;;;;;;11.03;9.93;;;36.70;32.90;;;;;;5136526;27;20458;-68
2022/06/19 12:33:46;;;;;;;10.90;9.80;;;36.90;33.30;;;;;;5136382;27;20466;-68
2022/06/19 12:36:15;;;;;;;12.33;9.07;;;36.90;33.20;;;;;;5136583;27;20463;-67
2022/06/19 12:38:43;;;;;;;11.73;9.23;;;36.90;33.30;;;;;;5136261;27;20475;-67
2022/06/19 12:41:26;;;;;;;11.80;8.30;;;36.90;32.90;;;;;;5136185;27;20828;-68
2022/06/19 12:44:01;;;;;;;9.90;9.00;;;36.80;32.50;;;;;;5135963;27;20907;-67
2022/06/19 12:46:36;;;;;;;11.47;9.17;;;36.70;33.20;;;;;;5136137;27;20560;-67
2022/06/19 12:49:42;;;;;;;10.67;8.40;;;36.70;33.20;;;;;;5136297;27;20442;-67
2022/06/19 12:52:19;;;;;;;10.83;9.00;;;36.80;32.40;;;;;;5135935;27;20490;-68
2022/06/19 12:55:13;;;;;;;10.90;8.53;;;36.80;32.70;;;;;;5135652;27;20975;-67
2022/06/19 12:57:55;;;;;;;10.43;8.53;;;36.80;33.10;;;;;;5136006;27;20435;-67
2022/06/19 13:00:38;;;;;;;8.83;8.13;;;36.90;33.00;;;;;;5136014;27;20469;-67
2022/06/19 13:03:29;;;;;;;12.00;8.47;;;36.90;32.90;;;;;;5135505;27;20462;-67
2022/06/19 13:06:05;;;;;;;11.63;8.60;;;36.90;32.20;;;;;;5135793;27;20474;-67
2022/06/19 13:08:40;;;;;;;9.97;8.27;;;37.00;32.30;;;;;;5135623;27;20449;-67
2022/06/19 13:11:23;;;;;;;10.37;8.00;;;37.00;32.90;;;;;;5135671;27;20500;-67